createdAt,value
2023-02-14T00:09:24.389Z,18.77
2023-02-14T00:19:26.306Z,18.43
2023-02-14T00:29:31.259Z,18.43
2023-02-14T00:39:32.941Z,18.83
2023-02-14T00:49:34.655Z,19.07
2023-02-14T00:59:36.814Z,20.03
2023-02-14T01:09:38.869Z,19.20
2023-02-14T01:19:42.447Z,17.37
2023-02-14T01:29:44.182Z,17.33
2023-02-14T01:39:45.884Z,16.63
2023-02-14T01:49:56.172Z,17.33
2023-02-14T02:00:20.533Z,17.53
2023-02-14T02:10:22.705Z,17.37
2023-02-14T02:20:24.309Z,18.53
2023-02-14T02:38:23.120Z,17.43
2023-02-14T02:48:40.874Z,18.83
2023-02-14T02:58:48.412Z,18.93
2023-02-14T03:08:50.117Z,19.30
2023-02-14T03:19:28.314Z,18.43
2023-02-14T03:29:53.964Z,17.43
2023-02-14T03:40:06.390Z,18.50
2023-02-14T03:50:17.231Z,18.50
2023-02-14T04:00:19.619Z,19.43
2023-02-14T04:10:21.960Z,19.13
2023-02-14T04:20:24.076Z,19.70
2023-02-14T04:30:25.806Z,19.87
2023-02-14T04:40:27.786Z,20.47
2023-02-14T04:50:29.531Z,19.90
2023-02-14T05:00:31.649Z,20.23
2023-02-14T05:10:33.831Z,19.40
2023-02-14T05:20:35.531Z,19.83
2023-02-14T05:30:38.507Z,21.60
2023-02-14T05:40:41.147Z,19.77
2023-02-14T05:50:45.194Z,18.90
2023-02-14T06:00:46.962Z,18.93
2023-02-14T06:10:48.687Z,19.97
2023-02-14T06:20:53.562Z,19.50
2023-02-14T06:30:55.894Z,18.43
2023-02-14T06:41:04.099Z,19.63
2023-02-14T06:51:06.620Z,19.10
2023-02-14T07:01:08.719Z,19.63
2023-02-14T07:11:10.826Z,19.50
2023-02-14T07:21:12.946Z,20.40
2023-02-14T07:31:19.873Z,20.97
2023-02-14T07:41:22.070Z,19.77
2023-02-14T07:51:23.716Z,20.93
2023-02-14T08:01:25.866Z,18.93
2023-02-14T08:11:47.029Z,19.57
2023-02-14T08:21:49.123Z,20.87
2023-02-14T08:39:00.220Z,19.90
2023-02-14T08:49:02.360Z,19.73
2023-02-14T08:59:04.202Z,20.10
2023-02-14T09:09:06.454Z,18.90
2023-02-14T09:19:08.111Z,18.37
2023-02-14T09:29:11.960Z,19.67
2023-02-14T09:39:13.622Z,17.63
2023-02-14T09:49:19.146Z,19.00
2023-02-14T09:59:34.365Z,17.30
2023-02-14T10:10:03.218Z,17.27
2023-02-14T10:20:16.663Z,16.20
2023-02-14T10:30:21.402Z,17.03
2023-02-14T10:41:37.708Z,16.60
2023-02-14T10:51:48.461Z,15.93
2023-02-14T11:01:55.258Z,17.10
2023-02-14T11:12:00.096Z,17.90
2023-02-14T11:22:04.879Z,17.37
2023-02-14T11:32:14.457Z,15.77
2023-02-14T11:43:02.131Z,14.73
2023-02-14T11:53:19.734Z,14.30
2023-02-14T12:03:22.145Z,15.20
2023-02-14T12:13:26.079Z,15.33
2023-02-14T12:23:42.559Z,16.20
2023-02-14T12:33:46.379Z,17.77
2023-02-14T12:44:05.878Z,18.00
2023-02-14T12:54:43.029Z,18.40
2023-02-14T13:05:15.896Z,20.20
2023-02-14T13:15:48.394Z,37.37
2023-02-14T13:25:59.690Z,27.93
2023-02-14T13:36:03.714Z,17.87
2023-02-14T13:46:05.486Z,17.43
2023-02-14T13:56:13.304Z,17.57
2023-02-14T14:06:15.069Z,17.70
2023-02-14T14:16:26.684Z,17.73
2023-02-14T14:26:36.213Z,17.80
2023-02-14T14:36:38.294Z,18.50
2023-02-14T14:46:40.064Z,18.47
2023-02-14T14:56:53.058Z,18.60
2023-02-14T15:06:57.288Z,18.60
2023-02-14T15:17:17.251Z,18.63
2023-02-14T15:27:23.470Z,17.40
2023-02-14T15:37:25.935Z,16.60
2023-02-14T15:47:27.637Z,17.90
2023-02-14T15:57:30.144Z,17.33
2023-02-14T16:07:31.979Z,18.77
2023-02-14T16:17:35.312Z,17.83
2023-02-14T16:27:36.970Z,19.00
2023-02-14T16:37:38.823Z,18.70
2023-02-14T16:47:40.495Z,18.00
2023-02-14T16:57:45.762Z,19.17
2023-02-14T17:07:47.912Z,20.07
2023-02-14T17:17:52.573Z,20.30
2023-02-14T17:27:56.290Z,19.13
2023-02-14T17:37:58.412Z,19.90
2023-02-14T17:48:01.660Z,19.00
2023-02-14T17:58:03.307Z,20.77
2023-02-14T18:12:56.675Z,18.97
2023-02-14T18:22:58.784Z,20.17
2023-02-14T18:33:00.492Z,20.73
2023-02-14T18:43:02.983Z,21.03
2023-02-14T18:53:04.729Z,20.93
2023-02-14T19:03:07.640Z,20.77
2023-02-14T19:22:16.311Z,20.93
2023-02-14T19:32:18.046Z,21.07
2023-02-14T19:42:19.773Z,20.87
2023-02-14T19:52:26.689Z,20.37
2023-02-14T20:02:28.688Z,22.37
2023-02-14T20:12:30.461Z,23.03
2023-02-14T20:22:32.237Z,22.03
2023-02-14T20:32:35.159Z,20.80
2023-02-14T20:42:39.555Z,20.17
2023-02-14T20:52:41.182Z,21.60
2023-02-14T21:02:42.800Z,21.87
2023-02-14T21:12:44.475Z,21.87
2023-02-14T21:32:35.548Z,21.57
2023-02-14T21:42:37.171Z,20.50
2023-02-14T21:52:38.820Z,22.43
2023-02-14T22:02:41.693Z,21.83
2023-02-14T22:12:43.508Z,23.70
2023-02-14T22:22:45.130Z,23.63
2023-02-14T22:32:46.876Z,25.27
2023-02-14T22:42:48.573Z,23.87
2023-02-14T22:52:50.649Z,24.60
2023-02-14T23:02:52.806Z,23.73
2023-02-14T23:13:13.527Z,22.37
2023-02-14T23:23:15.166Z,22.83
2023-02-14T23:33:16.784Z,23.83
2023-02-14T23:43:18.453Z,23.17
